Rich Lake, Canada
Current Conditions -  °F | °C
As of 1:00 PM on Friday 24 Oct 2014 (Local Time) from CYOD Reporting Station
Broken Clouds Broken Clouds  
Wind Chill: 37°   Ceiling: 22000
Heat Index: 45°   Visibility: 15mi
Dew Point: 32°   Wind: 16mph
Humidity: 61%   Direction: 270°W
Pressure: 29.75"   Gusts: 25mph
Location:  54.51°N, 111.62°W
Report Text: CYOD 241900Z 27014G22KT 15SM SCT030 BKN220 07/00 A2975 RMKSC4CI0 SLP092
Loading
Personal Weather Stations






























Interactive Weather Map
Tropical Storm Tracking
New forecast layout! Learn more

10-Day Weather Forecast

Advertisements
Track Severe Weather on mobile